sensor_id;sensor_type;location;lat;lon;timestamp;P1;durP1;ratioP1;P2;durP2;ratioP2
9465;SDS011;4771;48.726;9.006;2022-12-07T00:00:49;9.20;;;7.37;;
9465;SDS011;4771;48.726;9.006;2022-12-07T00:03:16;8.87;;;6.90;;
9465;SDS011;4771;48.726;9.006;2022-12-07T00:05:43;7.80;;;6.30;;
9465;SDS011;4771;48.726;9.006;2022-12-07T00:08:11;14.50;;;6.57;;
9465;SDS011;4771;48.726;9.006;2022-12-07T00:10:38;10.43;;;6.63;;
9465;SDS011;4771;48.726;9.006;2022-12-07T00:13:04;8.63;;;6.93;;
9465;SDS011;4771;48.726;9.006;2022-12-07T00:15:33;10.17;;;7.43;;
9465;SDS011;4771;48.726;9.006;2022-12-07T00:18:00;9.53;;;7.27;;
9465;SDS011;4771;48.726;9.006;2022-12-07T00:20:27;11.30;;;7.27;;
9465;SDS011;4771;48.726;9.006;2022-12-07T00:22:55;9.50;;;6.93;;
9465;SDS011;4771;48.726;9.006;2022-12-07T00:25:23;11.37;;;7.70;;
9465;SDS011;4771;48.726;9.006;2022-12-07T00:27:51;10.23;;;7.90;;
9465;SDS011;4771;48.726;9.006;2022-12-07T00:30:20;10.30;;;7.63;;
9465;SDS011;4771;48.726;9.006;2022-12-07T00:32:47;9.30;;;7.73;;
9465;SDS011;4771;48.726;9.006;2022-12-07T00:35:14;10.90;;;7.90;;
9465;SDS011;4771;48.726;9.006;2022-12-07T00:37:41;9.33;;;7.43;;
9465;SDS011;4771;48.726;9.006;2022-12-07T00:40:08;10.37;;;7.87;;
9465;SDS011;4771;48.726;9.006;2022-12-07T00:42:37;11.43;;;8.40;;
9465;SDS011;4771;48.726;9.006;2022-12-07T00:45:04;8.60;;;7.63;;
9465;SDS011;4771;48.726;9.006;2022-12-07T00:47:31;8.87;;;7.80;;
9465;SDS011;4771;48.726;9.006;2022-12-07T00:49:58;10.47;;;7.90;;
9465;SDS011;4771;48.726;9.006;2022-12-07T00:52:25;9.10;;;7.40;;
9465;SDS011;4771;48.726;9.006;2022-12-07T00:54:52;8.73;;;7.47;;
9465;SDS011;4771;48.726;9.006;2022-12-07T00:57:19;9.30;;;7.27;;
9465;SDS011;4771;48.726;9.006;2022-12-07T00:59:47;8.97;;;7.77;;
9465;SDS011;4771;48.726;9.006;2022-12-07T01:02:14;8.37;;;7.47;;
9465;SDS011;4771;48.726;9.006;2022-12-07T01:04:41;8.50;;;7.60;;
9465;SDS011;4771;48.726;9.006;2022-12-07T01:07:08;11.00;;;8.07;;
9465;SDS011;4771;48.726;9.006;2022-12-07T01:09:35;9.67;;;7.07;;
9465;SDS011;4771;48.726;9.006;2022-12-07T01:12:01;10.70;;;7.43;;
9465;SDS011;4771;48.726;9.006;2022-12-07T01:14:28;9.47;;;7.50;;
9465;SDS011;4771;48.726;9.006;2022-12-07T01:16:57;9.57;;;7.80;;
9465;SDS011;4771;48.726;9.006;2022-12-07T01:19:23;10.33;;;7.77;;
9465;SDS011;4771;48.726;9.006;2022-12-07T01:21:50;9.30;;;7.40;;
9465;SDS011;4771;48.726;9.006;2022-12-07T01:24:17;7.70;;;6.57;;
9465;SDS011;4771;48.726;9.006;2022-12-07T01:26:44;8.27;;;7.20;;
9465;SDS011;4771;48.726;9.006;2022-12-07T01:29:11;8.60;;;7.47;;
9465;SDS011;4771;48.726;9.006;2022-12-07T01:31:38;9.83;;;7.67;;
9465;SDS011;4771;48.726;9.006;2022-12-07T01:34:06;10.20;;;7.57;;
9465;SDS011;4771;48.726;9.006;2022-12-07T01:36:36;8.93;;;7.20;;
9465;SDS011;4771;48.726;9.006;2022-12-07T01:39:04;9.00;;;7.40;;
9465;SDS011;4771;48.726;9.006;2022-12-07T01:41:34;9.93;;;8.03;;
9465;SDS011;4771;48.726;9.006;2022-12-07T01:44:08;8.83;;;7.60;;
9465;SDS011;4771;48.726;9.006;2022-12-07T01:46:40;9.67;;;7.73;;
9465;SDS011;4771;48.726;9.006;2022-12-07T01:49:11;8.80;;;7.90;;
9465;SDS011;4771;48.726;9.006;2022-12-07T01:51:42;9.47;;;7.93;;
9465;SDS011;4771;48.726;9.006;2022-12-07T01:54:11;9.23;;;7.33;;
9465;SDS011;4771;48.726;9.006;2022-12-07T01:56:38;9.20;;;7.30;;
9465;SDS011;4771;48.726;9.006;2022-12-07T01:59:07;9.57;;;7.50;;
9465;SDS011;4771;48.726;9.006;2022-12-07T02:01:34;8.93;;;7.80;;
9465;SDS011;4771;48.726;9.006;2022-12-07T02:04:01;10.00;;;7.47;;
9465;SDS011;4771;48.726;9.006;2022-12-07T02:06:30;10.53;;;7.90;;
9465;SDS011;4771;48.726;9.006;2022-12-07T02:08:57;11.83;;;7.53;;
9465;SDS011;4771;48.726;9.006;2022-12-07T02:11:24;9.33;;;7.53;;
9465;SDS011;4771;48.726;9.006;2022-12-07T02:13:51;9.93;;;7.67;;
9465;SDS011;4771;48.726;9.006;2022-12-07T02:16:22;9.33;;;7.67;;
9465;SDS011;4771;48.726;9.006;2022-12-07T02:18:58;9.40;;;7.53;;
9465;SDS011;4771;48.726;9.006;2022-12-07T02:21:37;9.70;;;7.53;;
9465;SDS011;4771;48.726;9.006;2022-12-07T02:24:14;9.80;;;7.40;;
9465;SDS011;4771;48.726;9.006;2022-12-07T02:27:02;10.50;;;7.70;;
9465;SDS011;4771;48.726;9.006;2022-12-07T02:29:54;10.07;;;7.37;;
9465;SDS011;4771;48.726;9.006;2022-12-07T02:32:27;11.40;;;7.50;;
9465;SDS011;4771;48.726;9.006;2022-12-07T02:35:04;8.27;;;6.97;;
9465;SDS011;4771;48.726;9.006;2022-12-07T02:37:35;8.97;;;7.30;;
9465;SDS011;4771;48.726;9.006;2022-12-07T02:40:06;9.37;;;7.67;;
9465;SDS011;4771;48.726;9.006;2022-12-07T02:42:38;10.07;;;8.03;;
9465;SDS011;4771;48.726;9.006;2022-12-07T02:45:10;10.93;;;8.53;;
9465;SDS011;4771;48.726;9.006;2022-12-07T02:47:40;9.03;;;7.60;;
9465;SDS011;4771;48.726;9.006;2022-12-07T02:50:07;8.83;;;7.57;;
9465;SDS011;4771;48.726;9.006;2022-12-07T02:52:35;9.13;;;7.63;;
9465;SDS011;4771;48.726;9.006;2022-12-07T02:55:02;8.63;;;7.13;;
9465;SDS011;4771;48.726;9.006;2022-12-07T02:57:34;10.43;;;8.27;;
9465;SDS011;4771;48.726;9.006;2022-12-07T03:00:13;9.60;;;7.40;;
9465;SDS011;4771;48.726;9.006;2022-12-07T03:02:46;9.40;;;7.57;;
9465;SDS011;4771;48.726;9.006;2022-12-07T03:05:26;9.80;;;7.23;;
9465;SDS011;4771;48.726;9.006;2022-12-07T03:08:02;9.90;;;7.70;;
9465;SDS011;4771;48.726;9.006;2022-12-07T03:10:34;8.00;;;6.87;;
9465;SDS011;4771;48.726;9.006;2022-12-07T03:13:07;8.70;;;7.10;;
9465;SDS011;4771;48.726;9.006;2022-12-07T03:15:41;9.27;;;7.40;;
9465;SDS011;4771;48.726;9.006;2022-12-07T03:18:13;9.83;;;7.10;;
9465;SDS011;4771;48.726;9.006;2022-12-07T03:20:50;8.27;;;7.17;;
9465;SDS011;4771;48.726;9.006;2022-12-07T03:23:21;8.83;;;7.03;;
9465;SDS011;4771;48.726;9.006;2022-12-07T03:25:52;8.90;;;7.23;;
9465;SDS011;4771;48.726;9.006;2022-12-07T03:28:22;9.77;;;7.17;;
9465;SDS011;4771;48.726;9.006;2022-12-07T03:30:55;9.30;;;7.53;;
9465;SDS011;4771;48.726;9.006;2022-12-07T03:33:26;8.93;;;7.50;;
9465;SDS011;4771;48.726;9.006;2022-12-07T03:35:58;8.97;;;7.07;;
9465;SDS011;4771;48.726;9.006;2022-12-07T03:38:31;9.57;;;7.23;;
9465;SDS011;4771;48.726;9.006;2022-12-07T03:41:04;10.50;;;7.63;;
9465;SDS011;4771;48.726;9.006;2022-12-07T03:43:35;9.27;;;8.07;;
9465;SDS011;4771;48.726;9.006;2022-12-07T03:46:06;8.80;;;7.67;;
9465;SDS011;4771;48.726;9.006;2022-12-07T03:48:41;8.60;;;7.23;;
9465;SDS011;4771;48.726;9.006;2022-12-07T03:51:19;8.47;;;7.27;;
9465;SDS011;4771;48.726;9.006;2022-12-07T03:53:52;10.17;;;7.43;;
9465;SDS011;4771;48.726;9.006;2022-12-07T03:56:25;10.40;;;7.77;;
9465;SDS011;4771;48.726;9.006;2022-12-07T03:58:53;10.77;;;7.90;;
9465;SDS011;4771;48.726;9.006;2022-12-07T04:01:22;11.03;;;7.77;;
9465;SDS011;4771;48.726;9.006;2022-12-07T04:03:49;9.80;;;8.20;;
9465;SDS011;4771;48.726;9.006;2022-12-07T04:06:16;11.87;;;8.40;;
9465;SDS011;4771;48.726;9.006;2022-12-07T04:08:43;9.87;;;7.93;;
9465;SDS011;4771;48.726;9.006;2022-12-07T04:11:10;10.47;;;8.10;;
9465;SDS011;4771;48.726;9.006;2022-12-07T04:13:37;11.83;;;8.33;;
9465;SDS011;4771;48.726;9.006;2022-12-07T04:16:17;10.70;;;7.90;;
9465;SDS011;4771;48.726;9.006;2022-12-07T04:18:45;10.77;;;8.30;;
9465;SDS011;4771;48.726;9.006;2022-12-07T04:21:12;9.23;;;7.90;;
9465;SDS011;4771;48.726;9.006;2022-12-07T04:23:39;10.17;;;7.63;;
9465;SDS011;4771;48.726;9.006;2022-12-07T04:26:06;11.27;;;7.43;;
9465;SDS011;4771;48.726;9.006;2022-12-07T04:28:33;10.67;;;8.20;;
9465;SDS011;4771;48.726;9.006;2022-12-07T04:31:00;10.47;;;8.27;;
9465;SDS011;4771;48.726;9.006;2022-12-07T04:33:26;9.43;;;7.07;;
9465;SDS011;4771;48.726;9.006;2022-12-07T04:35:55;10.23;;;7.43;;
9465;SDS011;4771;48.726;9.006;2022-12-07T04:38:21;8.90;;;7.70;;
9465;SDS011;4771;48.726;9.006;2022-12-07T04:40:48;9.33;;;7.73;;
9465;SDS011;4771;48.726;9.006;2022-12-07T04:43:15;11.50;;;7.60;;
9465;SDS011;4771;48.726;9.006;2022-12-07T04:45:45;8.97;;;7.10;;
9465;SDS011;4771;48.726;9.006;2022-12-07T04:48:12;10.13;;;7.20;;
9465;SDS011;4771;48.726;9.006;2022-12-07T04:50:39;9.33;;;7.63;;
9465;SDS011;4771;48.726;9.006;2022-12-07T04:53:07;11.37;;;8.00;;
9465;SDS011;4771;48.726;9.006;2022-12-07T04:55:34;10.33;;;8.27;;
9465;SDS011;4771;48.726;9.006;2022-12-07T04:58:01;9.67;;;7.80;;
9465;SDS011;4771;48.726;9.006;2022-12-07T05:00:28;11.50;;;7.73;;
9465;SDS011;4771;48.726;9.006;2022-12-07T05:02:54;10.37;;;7.73;;
9465;SDS011;4771;48.726;9.006;2022-12-07T05:05:21;9.30;;;7.20;;
9465;SDS011;4771;48.726;9.006;2022-12-07T05:07:49;10.13;;;7.63;;
9465;SDS011;4771;48.726;9.006;2022-12-07T05:10:17;10.63;;;8.00;;
9465;SDS011;4771;48.726;9.006;2022-12-07T05:12:44;11.03;;;7.63;;
9465;SDS011;4771;48.726;9.006;2022-12-07T05:15:11;9.97;;;7.20;;
9465;SDS011;4771;48.726;9.006;2022-12-07T05:17:38;11.50;;;8.00;;
9465;SDS011;4771;48.726;9.006;2022-12-07T05:20:06;9.63;;;7.37;;
9465;SDS011;4771;48.726;9.006;2022-12-07T05:22:34;9.10;;;7.57;;
9465;SDS011;4771;48.726;9.006;2022-12-07T05:25:01;8.63;;;6.87;;
9465;SDS011;4771;48.726;9.006;2022-12-07T05:27:29;9.30;;;7.30;;
9465;SDS011;4771;48.726;9.006;2022-12-07T05:29:56;7.90;;;6.93;;
9465;SDS011;4771;48.726;9.006;2022-12-07T05:32:22;10.77;;;7.73;;
9465;SDS011;4771;48.726;9.006;2022-12-07T05:34:49;9.53;;;7.47;;
9465;SDS011;4771;48.726;9.006;2022-12-07T05:37:16;9.17;;;7.33;;
9465;SDS011;4771;48.726;9.006;2022-12-07T05:39:43;8.83;;;7.27;;
9465;SDS011;4771;48.726;9.006;2022-12-07T05:42:10;9.27;;;6.97;;
9465;SDS011;4771;48.726;9.006;2022-12-07T05:44:42;8.77;;;7.27;;
9465;SDS011;4771;48.726;9.006;2022-12-07T05:47:09;7.83;;;6.80;;
9465;SDS011;4771;48.726;9.006;2022-12-07T05:49:37;8.83;;;7.17;;
9465;SDS011;4771;48.726;9.006;2022-12-07T05:52:04;10.07;;;6.87;;
9465;SDS011;4771;48.726;9.006;2022-12-07T05:54:31;9.63;;;7.17;;
9465;SDS011;4771;48.726;9.006;2022-12-07T05:56:58;8.93;;;7.13;;
9465;SDS011;4771;48.726;9.006;2022-12-07T05:59:25;8.47;;;6.83;;
9465;SDS011;4771;48.726;9.006;2022-12-07T06:01:54;9.77;;;7.37;;
9465;SDS011;4771;48.726;9.006;2022-12-07T06:04:22;9.03;;;6.97;;
9465;SDS011;4771;48.726;9.006;2022-12-07T06:06:50;9.07;;;7.17;;
9465;SDS011;4771;48.726;9.006;2022-12-07T06:09:17;10.37;;;7.70;;
9465;SDS011;4771;48.726;9.006;2022-12-07T06:11:45;8.47;;;7.23;;
9465;SDS011;4771;48.726;9.006;2022-12-07T06:14:29;10.57;;;7.43;;
9465;SDS011;4771;48.726;9.006;2022-12-07T06:16:57;9.47;;;7.37;;
9465;SDS011;4771;48.726;9.006;2022-12-07T06:19:24;9.27;;;7.57;;
9465;SDS011;4771;48.726;9.006;2022-12-07T06:21:51;11.57;;;8.03;;
9465;SDS011;4771;48.726;9.006;2022-12-07T06:24:18;9.47;;;7.73;;
9465;SDS011;4771;48.726;9.006;2022-12-07T06:26:46;12.10;;;8.63;;
9465;SDS011;4771;48.726;9.006;2022-12-07T06:29:13;9.67;;;8.17;;
9465;SDS011;4771;48.726;9.006;2022-12-07T06:31:40;11.17;;;8.10;;
9465;SDS011;4771;48.726;9.006;2022-12-07T06:34:10;9.60;;;7.50;;
9465;SDS011;4771;48.726;9.006;2022-12-07T06:36:38;11.47;;;8.07;;
9465;SDS011;4771;48.726;9.006;2022-12-07T06:39:05;11.33;;;8.43;;
9465;SDS011;4771;48.726;9.006;2022-12-07T06:41:34;11.03;;;8.03;;
9465;SDS011;4771;48.726;9.006;2022-12-07T06:44:01;12.00;;;8.13;;
9465;SDS011;4771;48.726;9.006;2022-12-07T06:46:28;11.00;;;6.97;;
9465;SDS011;4771;48.726;9.006;2022-12-07T06:48:55;11.43;;;7.40;;
9465;SDS011;4771;48.726;9.006;2022-12-07T06:51:23;8.73;;;6.70;;
9465;SDS011;4771;48.726;9.006;2022-12-07T06:53:50;8.93;;;6.07;;
9465;SDS011;4771;48.726;9.006;2022-12-07T06:56:17;6.70;;;5.67;;
9465;SDS011;4771;48.726;9.006;2022-12-07T06:58:44;7.57;;;5.87;;
9465;SDS011;4771;48.726;9.006;2022-12-07T07:01:11;7.23;;;6.13;;
9465;SDS011;4771;48.726;9.006;2022-12-07T07:03:40;8.27;;;6.43;;
9465;SDS011;4771;48.726;9.006;2022-12-07T07:06:07;7.73;;;6.47;;
9465;SDS011;4771;48.726;9.006;2022-12-07T07:08:36;9.73;;;6.33;;
9465;SDS011;4771;48.726;9.006;2022-12-07T07:11:04;8.13;;;6.73;;
9465;SDS011;4771;48.726;9.006;2022-12-07T07:13:31;10.97;;;7.23;;
9465;SDS011;4771;48.726;9.006;2022-12-07T07:15:58;9.87;;;7.20;;
9465;SDS011;4771;48.726;9.006;2022-12-07T07:18:25;8.90;;;7.00;;
9465;SDS011;4771;48.726;9.006;2022-12-07T07:20:53;10.00;;;7.60;;
9465;SDS011;4771;48.726;9.006;2022-12-07T07:23:20;10.27;;;7.60;;
9465;SDS011;4771;48.726;9.006;2022-12-07T07:25:49;10.20;;;7.53;;
9465;SDS011;4771;48.726;9.006;2022-12-07T07:28:16;9.93;;;7.93;;
9465;SDS011;4771;48.726;9.006;2022-12-07T07:30:43;10.50;;;7.53;;
9465;SDS011;4771;48.726;9.006;2022-12-07T07:33:10;13.70;;;8.53;;
9465;SDS011;4771;48.726;9.006;2022-12-07T07:35:37;12.17;;;8.27;;
9465;SDS011;4771;48.726;9.006;2022-12-07T07:38:04;10.30;;;7.77;;
9465;SDS011;4771;48.726;9.006;2022-12-07T07:40:32;9.37;;;7.53;;
9465;SDS011;4771;48.726;9.006;2022-12-07T07:43:01;10.03;;;8.10;;
9465;SDS011;4771;48.726;9.006;2022-12-07T07:45:28;9.33;;;7.43;;
9465;SDS011;4771;48.726;9.006;2022-12-07T07:47:54;13.13;;;7.43;;
9465;SDS011;4771;48.726;9.006;2022-12-07T07:50:21;9.53;;;7.03;;
9465;SDS011;4771;48.726;9.006;2022-12-07T07:52:49;9.40;;;7.53;;
9465;SDS011;4771;48.726;9.006;2022-12-07T07:55:16;10.63;;;7.53;;
9465;SDS011;4771;48.726;9.006;2022-12-07T07:57:43;8.60;;;7.00;;
9465;SDS011;4771;48.726;9.006;2022-12-07T08:00:12;8.63;;;6.93;;
9465;SDS011;4771;48.726;9.006;2022-12-07T08:02:40;8.43;;;6.60;;
9465;SDS011;4771;48.726;9.006;2022-12-07T08:05:08;10.17;;;7.90;;
9465;SDS011;4771;48.726;9.006;2022-12-07T08:07:35;9.00;;;6.70;;
9465;SDS011;4771;48.726;9.006;2022-12-07T08:10:02;10.10;;;7.03;;
9465;SDS011;4771;48.726;9.006;2022-12-07T08:12:30;9.43;;;6.87;;
9465;SDS011;4771;48.726;9.006;2022-12-07T08:14:57;7.77;;;6.23;;
9465;SDS011;4771;48.726;9.006;2022-12-07T08:17:25;9.57;;;6.97;;
9465;SDS011;4771;48.726;9.006;2022-12-07T08:19:52;10.20;;;7.10;;
9465;SDS011;4771;48.726;9.006;2022-12-07T08:22:18;13.30;;;7.37;;
9465;SDS011;4771;48.726;9.006;2022-12-07T08:24:45;8.93;;;6.80;;
9465;SDS011;4771;48.726;9.006;2022-12-07T08:27:12;13.53;;;7.20;;
9465;SDS011;4771;48.726;9.006;2022-12-07T08:29:39;10.87;;;7.50;;
9465;SDS011;4771;48.726;9.006;2022-12-07T08:32:06;10.17;;;7.50;;
9465;SDS011;4771;48.726;9.006;2022-12-07T08:34:34;10.20;;;6.87;;
9465;SDS011;4771;48.726;9.006;2022-12-07T08:37:02;8.63;;;6.70;;
9465;SDS011;4771;48.726;9.006;2022-12-07T08:39:28;8.73;;;6.60;;
9465;SDS011;4771;48.726;9.006;2022-12-07T08:41:55;9.03;;;6.70;;
9465;SDS011;4771;48.726;9.006;2022-12-07T08:44:22;8.90;;;6.87;;
9465;SDS011;4771;48.726;9.006;2022-12-07T08:46:49;8.73;;;6.60;;
9465;SDS011;4771;48.726;9.006;2022-12-07T08:49:20;8.63;;;5.97;;
9465;SDS011;4771;48.726;9.006;2022-12-07T08:51:53;7.27;;;6.13;;
9465;SDS011;4771;48.726;9.006;2022-12-07T08:54:21;8.07;;;6.27;;
9465;SDS011;4771;48.726;9.006;2022-12-07T08:56:48;8.43;;;6.67;;
9465;SDS011;4771;48.726;9.006;2022-12-07T08:59:17;8.77;;;6.03;;
9465;SDS011;4771;48.726;9.006;2022-12-07T09:01:45;6.67;;;5.37;;
9465;SDS011;4771;48.726;9.006;2022-12-07T09:04:12;9.00;;;6.60;;
9465;SDS011;4771;48.726;9.006;2022-12-07T09:06:39;7.37;;;6.13;;
9465;SDS011;4771;48.726;9.006;2022-12-07T09:09:08;7.23;;;5.50;;
9465;SDS011;4771;48.726;9.006;2022-12-07T09:11:36;9.70;;;5.90;;
9465;SDS011;4771;48.726;9.006;2022-12-07T09:14:04;7.30;;;5.73;;
9465;SDS011;4771;48.726;9.006;2022-12-07T09:16:31;8.63;;;5.60;;
9465;SDS011;4771;48.726;9.006;2022-12-07T09:18:58;6.67;;;5.20;;
9465;SDS011;4771;48.726;9.006;2022-12-07T09:21:25;6.70;;;5.20;;
9465;SDS011;4771;48.726;9.006;2022-12-07T09:23:51;6.60;;;5.17;;
9465;SDS011;4771;48.726;9.006;2022-12-07T09:26:20;7.73;;;5.50;;
9465;SDS011;4771;48.726;9.006;2022-12-07T09:28:46;7.47;;;5.60;;
9465;SDS011;4771;48.726;9.006;2022-12-07T09:31:13;8.03;;;5.80;;
9465;SDS011;4771;48.726;9.006;2022-12-07T09:33:40;8.37;;;5.67;;
9465;SDS011;4771;48.726;9.006;2022-12-07T09:36:07;8.10;;;5.97;;
9465;SDS011;4771;48.726;9.006;2022-12-07T09:38:35;8.23;;;5.70;;
9465;SDS011;4771;48.726;9.006;2022-12-07T09:41:04;8.70;;;5.93;;
9465;SDS011;4771;48.726;9.006;2022-12-07T09:43:33;7.33;;;5.70;;
9465;SDS011;4771;48.726;9.006;2022-12-07T09:46:02;8.17;;;5.90;;
9465;SDS011;4771;48.726;9.006;2022-12-07T09:48:31;7.27;;;5.13;;
9465;SDS011;4771;48.726;9.006;2022-12-07T09:51:02;6.33;;;4.97;;
9465;SDS011;4771;48.726;9.006;2022-12-07T09:53:39;5.23;;;4.70;;
9465;SDS011;4771;48.726;9.006;2022-12-07T09:56:08;5.80;;;4.80;;
9465;SDS011;4771;48.726;9.006;2022-12-07T09:58:39;7.27;;;5.00;;
9465;SDS011;4771;48.726;9.006;2022-12-07T10:01:09;5.10;;;4.43;;
9465;SDS011;4771;48.726;9.006;2022-12-07T10:03:40;4.87;;;4.10;;
9465;SDS011;4771;48.726;9.006;2022-12-07T10:06:11;5.37;;;4.77;;
9465;SDS011;4771;48.726;9.006;2022-12-07T10:08:39;4.80;;;4.00;;
9465;SDS011;4771;48.726;9.006;2022-12-07T10:11:06;5.27;;;4.67;;
9465;SDS011;4771;48.726;9.006;2022-12-07T10:13:35;5.33;;;4.37;;
9465;SDS011;4771;48.726;9.006;2022-12-07T10:16:06;5.87;;;4.80;;
9465;SDS011;4771;48.726;9.006;2022-12-07T10:18:52;5.03;;;4.20;;
9465;SDS011;4771;48.726;9.006;2022-12-07T10:21:20;5.60;;;4.70;;
9465;SDS011;4771;48.726;9.006;2022-12-07T10:23:59;5.30;;;4.40;;
9465;SDS011;4771;48.726;9.006;2022-12-07T10:26:29;7.87;;;4.63;;
9465;SDS011;4771;48.726;9.006;2022-12-07T10:28:58;5.70;;;4.07;;
9465;SDS011;4771;48.726;9.006;2022-12-07T10:31:28;5.27;;;4.23;;
9465;SDS011;4771;48.726;9.006;2022-12-07T10:33:56;5.67;;;4.40;;
9465;SDS011;4771;48.726;9.006;2022-12-07T10:36:25;6.40;;;4.37;;
9465;SDS011;4771;48.726;9.006;2022-12-07T10:38:58;5.23;;;4.30;;
9465;SDS011;4771;48.726;9.006;2022-12-07T10:41:27;5.17;;;4.40;;
9465;SDS011;4771;48.726;9.006;2022-12-07T10:43:54;4.67;;;3.93;;
9465;SDS011;4771;48.726;9.006;2022-12-07T10:46:38;6.87;;;4.37;;
9465;SDS011;4771;48.726;9.006;2022-12-07T10:49:29;22.60;;;16.27;;
9465;SDS011;4771;48.726;9.006;2022-12-07T10:52:29;5.37;;;4.13;;
9465;SDS011;4771;48.726;9.006;2022-12-07T10:55:13;4.53;;;3.70;;
9465;SDS011;4771;48.726;9.006;2022-12-07T10:57:49;7.17;;;3.90;;
9465;SDS011;4771;48.726;9.006;2022-12-07T11:00:25;5.40;;;3.63;;
9465;SDS011;4771;48.726;9.006;2022-12-07T11:05:50;4.60;;;3.93;;
9465;SDS011;4771;48.726;9.006;2022-12-07T11:08:36;5.40;;;3.47;;
9465;SDS011;4771;48.726;9.006;2022-12-07T11:11:09;4.63;;;3.47;;
9465;SDS011;4771;48.726;9.006;2022-12-07T11:13:42;4.43;;;3.60;;
9465;SDS011;4771;48.726;9.006;2022-12-07T11:16:21;4.07;;;3.53;;
9465;SDS011;4771;48.726;9.006;2022-12-07T11:19:01;4.07;;;3.30;;
9465;SDS011;4771;48.726;9.006;2022-12-07T11:21:45;5.30;;;3.40;;
9465;SDS011;4771;48.726;9.006;2022-12-07T11:24:19;4.17;;;3.50;;
9465;SDS011;4771;48.726;9.006;2022-12-07T11:29:51;3.33;;;2.90;;
9465;SDS011;4771;48.726;9.006;2022-12-07T11:32:35;4.67;;;3.00;;
9465;SDS011;4771;48.726;9.006;2022-12-07T11:35:18;3.63;;;3.00;;
9465;SDS011;4771;48.726;9.006;2022-12-07T11:37:57;2.77;;;2.50;;
9465;SDS011;4771;48.726;9.006;2022-12-07T11:40:28;4.23;;;2.90;;
9465;SDS011;4771;48.726;9.006;2022-12-07T11:43:01;4.00;;;2.80;;
9465;SDS011;4771;48.726;9.006;2022-12-07T11:45:32;3.37;;;2.60;;
9465;SDS011;4771;48.726;9.006;2022-12-07T11:48:00;3.07;;;2.70;;
9465;SDS011;4771;48.726;9.006;2022-12-07T11:50:33;5.47;;;2.90;;
9465;SDS011;4771;48.726;9.006;2022-12-07T11:53:03;2.63;;;2.40;;
9465;SDS011;4771;48.726;9.006;2022-12-07T11:55:39;3.03;;;2.73;;
9465;SDS011;4771;48.726;9.006;2022-12-07T11:58:14;2.67;;;2.47;;
9465;SDS011;4771;48.726;9.006;2022-12-07T12:01:01;4.63;;;2.43;;
9465;SDS011;4771;48.726;9.006;2022-12-07T12:03:38;3.10;;;2.50;;
9465;SDS011;4771;48.726;9.006;2022-12-07T12:06:10;2.30;;;2.10;;
9465;SDS011;4771;48.726;9.006;2022-12-07T12:08:38;2.30;;;2.03;;
9465;SDS011;4771;48.726;9.006;2022-12-07T12:11:14;2.40;;;2.20;;
9465;SDS011;4771;48.726;9.006;2022-12-07T12:13:58;2.30;;;2.10;;
9465;SDS011;4771;48.726;9.006;2022-12-07T12:16:50;3.53;;;2.17;;
9465;SDS011;4771;48.726;9.006;2022-12-07T12:19:37;2.97;;;2.40;;
9465;SDS011;4771;48.726;9.006;2022-12-07T12:22:12;2.50;;;2.30;;
9465;SDS011;4771;48.726;9.006;2022-12-07T12:24:41;2.97;;;2.10;;
9465;SDS011;4771;48.726;9.006;2022-12-07T12:27:23;3.07;;;2.10;;
9465;SDS011;4771;48.726;9.006;2022-12-07T12:29:55;4.63;;;2.40;;
9465;SDS011;4771;48.726;9.006;2022-12-07T12:32:28;3.70;;;2.20;;
9465;SDS011;4771;48.726;9.006;2022-12-07T12:37:54;2.93;;;2.33;;
9465;SDS011;4771;48.726;9.006;2022-12-07T12:40:40;2.40;;;2.20;;
9465;SDS011;4771;48.726;9.006;2022-12-07T12:49:14;4.83;;;2.60;;
9465;SDS011;4771;48.726;9.006;2022-12-07T12:55:16;3.07;;;2.60;;
9465;SDS011;4771;48.726;9.006;2022-12-07T13:03:53;12.07;;;3.33;;
9465;SDS011;4771;48.726;9.006;2022-12-07T13:06:31;5.30;;;2.97;;
9465;SDS011;4771;48.726;9.006;2022-12-07T13:09:03;3.50;;;3.20;;
9465;SDS011;4771;48.726;9.006;2022-12-07T13:11:32;4.17;;;3.07;;
9465;SDS011;4771;48.726;9.006;2022-12-07T13:17:10;3.73;;;3.37;;
9465;SDS011;4771;48.726;9.006;2022-12-07T13:22:40;3.93;;;3.20;;
9465;SDS011;4771;48.726;9.006;2022-12-07T13:25:18;3.57;;;3.27;;
9465;SDS011;4771;48.726;9.006;2022-12-07T13:27:56;7.27;;;3.97;;
9465;SDS011;4771;48.726;9.006;2022-12-07T13:30:25;4.70;;;3.70;;
9465;SDS011;4771;48.726;9.006;2022-12-07T13:32:54;5.87;;;3.90;;
9465;SDS011;4771;48.726;9.006;2022-12-07T13:35:32;4.07;;;3.67;;
9465;SDS011;4771;48.726;9.006;2022-12-07T13:38:04;4.00;;;3.47;;
9465;SDS011;4771;48.726;9.006;2022-12-07T13:40:32;3.83;;;3.40;;
9465;SDS011;4771;48.726;9.006;2022-12-07T13:43:02;3.87;;;3.30;;
9465;SDS011;4771;48.726;9.006;2022-12-07T13:45:30;3.93;;;3.07;;
9465;SDS011;4771;48.726;9.006;2022-12-07T13:48:19;3.77;;;2.90;;
9465;SDS011;4771;48.726;9.006;2022-12-07T13:50:53;4.90;;;3.10;;
9465;SDS011;4771;48.726;9.006;2022-12-07T13:53:21;4.33;;;3.33;;
9465;SDS011;4771;48.726;9.006;2022-12-07T13:55:48;3.67;;;3.10;;
9465;SDS011;4771;48.726;9.006;2022-12-07T13:58:17;3.37;;;3.07;;
9465;SDS011;4771;48.726;9.006;2022-12-07T14:00:44;3.50;;;2.83;;
9465;SDS011;4771;48.726;9.006;2022-12-07T14:03:23;3.73;;;3.23;;
9465;SDS011;4771;48.726;9.006;2022-12-07T14:06:04;3.40;;;3.00;;
9465;SDS011;4771;48.726;9.006;2022-12-07T14:08:42;5.00;;;3.10;;
9465;SDS011;4771;48.726;9.006;2022-12-07T14:11:16;3.60;;;3.20;;
9465;SDS011;4771;48.726;9.006;2022-12-07T14:13:50;4.23;;;3.10;;
9465;SDS011;4771;48.726;9.006;2022-12-07T14:16:25;4.00;;;2.97;;
9465;SDS011;4771;48.726;9.006;2022-12-07T14:18:55;4.70;;;2.90;;
9465;SDS011;4771;48.726;9.006;2022-12-07T14:21:23;3.40;;;2.90;;
9465;SDS011;4771;48.726;9.006;2022-12-07T14:24:12;4.03;;;2.90;;
9465;SDS011;4771;48.726;9.006;2022-12-07T14:26:43;3.80;;;2.70;;
9465;SDS011;4771;48.726;9.006;2022-12-07T14:29:29;4.17;;;2.73;;
9465;SDS011;4771;48.726;9.006;2022-12-07T14:31:59;2.97;;;2.67;;
9465;SDS011;4771;48.726;9.006;2022-12-07T14:34:58;3.17;;;2.87;;
9465;SDS011;4771;48.726;9.006;2022-12-07T14:37:27;4.60;;;3.30;;
9465;SDS011;4771;48.726;9.006;2022-12-07T14:39:55;4.07;;;3.17;;
9465;SDS011;4771;48.726;9.006;2022-12-07T14:42:23;3.40;;;3.10;;
9465;SDS011;4771;48.726;9.006;2022-12-07T14:44:55;3.97;;;3.43;;
9465;SDS011;4771;48.726;9.006;2022-12-07T14:47:22;4.97;;;3.53;;
9465;SDS011;4771;48.726;9.006;2022-12-07T14:49:49;4.30;;;3.73;;
9465;SDS011;4771;48.726;9.006;2022-12-07T14:52:17;4.30;;;3.40;;
9465;SDS011;4771;48.726;9.006;2022-12-07T14:54:45;5.77;;;3.80;;
9465;SDS011;4771;48.726;9.006;2022-12-07T14:57:12;10.13;;;4.70;;
9465;SDS011;4771;48.726;9.006;2022-12-07T14:59:39;6.97;;;4.23;;
9465;SDS011;4771;48.726;9.006;2022-12-07T15:02:09;7.10;;;4.40;;
9465;SDS011;4771;48.726;9.006;2022-12-07T15:04:37;15.83;;;4.47;;
9465;SDS011;4771;48.726;9.006;2022-12-07T15:07:05;8.57;;;4.10;;
9465;SDS011;4771;48.726;9.006;2022-12-07T15:09:35;9.90;;;4.27;;
9465;SDS011;4771;48.726;9.006;2022-12-07T15:12:02;5.53;;;4.10;;
9465;SDS011;4771;48.726;9.006;2022-12-07T15:14:29;6.17;;;4.10;;
9465;SDS011;4771;48.726;9.006;2022-12-07T15:16:56;6.33;;;4.50;;
9465;SDS011;4771;48.726;9.006;2022-12-07T15:19:24;5.47;;;4.47;;
9465;SDS011;4771;48.726;9.006;2022-12-07T15:21:52;5.37;;;4.50;;
9465;SDS011;4771;48.726;9.006;2022-12-07T15:24:19;7.63;;;3.93;;
9465;SDS011;4771;48.726;9.006;2022-12-07T15:26:46;5.20;;;4.37;;
9465;SDS011;4771;48.726;9.006;2022-12-07T15:29:14;6.37;;;4.20;;
9465;SDS011;4771;48.726;9.006;2022-12-07T15:31:41;5.37;;;4.30;;
9465;SDS011;4771;48.726;9.006;2022-12-07T15:34:09;6.30;;;4.77;;
9465;SDS011;4771;48.726;9.006;2022-12-07T15:36:37;5.67;;;4.67;;
9465;SDS011;4771;48.726;9.006;2022-12-07T15:39:04;4.90;;;4.20;;
9465;SDS011;4771;48.726;9.006;2022-12-07T15:41:31;8.43;;;5.60;;
9465;SDS011;4771;48.726;9.006;2022-12-07T15:43:58;7.07;;;5.40;;
9465;SDS011;4771;48.726;9.006;2022-12-07T15:46:42;8.33;;;5.40;;
9465;SDS011;4771;48.726;9.006;2022-12-07T15:49:10;6.43;;;5.30;;
9465;SDS011;4771;48.726;9.006;2022-12-07T15:51:40;8.23;;;6.00;;
9465;SDS011;4771;48.726;9.006;2022-12-07T15:54:08;7.90;;;6.23;;
9465;SDS011;4771;48.726;9.006;2022-12-07T15:56:39;7.33;;;5.87;;
9465;SDS011;4771;48.726;9.006;2022-12-07T15:59:06;8.13;;;6.10;;
9465;SDS011;4771;48.726;9.006;2022-12-07T16:01:32;8.43;;;6.33;;